Time;durP1;ratioP1;P1;durP2;ratioP2;P2;SDS_P1;SDS_P2;PMS_P1;PMS_P2;Temp;Humidity;BMP_temperature;BMP_pressure;BME280_temperature;BME280_humidity;BME280_pressure;Samples;Min_cycle;Max_cycle;Signal;HPM_P1;HPM_P2
2020/12/16 00:01:12;;;;;;;1.70;1.60;;;19.90;55.00;;;;;;5071246;28;20485;-68
2020/12/16 00:03:38;;;;;;;2.10;2.00;;;20.00;54.90;;;;;;5067036;28;20481;-68
2020/12/16 00:06:04;;;;;;;1.53;1.53;;;19.90;54.90;;;;;;5068852;28;20492;-68
2020/12/16 00:08:30;;;;;;;2.67;2.47;;;19.90;55.10;;;;;;5065540;28;20504;-67
2020/12/16 00:10:57;;;;;;;2.60;2.40;;;19.80;55.00;;;;;;5054573;28;20492;-68
2020/12/16 00:13:24;;;;;;;2.10;2.00;;;19.80;55.00;;;;;;5074002;28;21022;-67
2020/12/16 00:15:50;;;;;;;2.10;1.90;;;19.80;55.00;;;;;;5075384;28;20461;-68
2020/12/16 00:18:16;;;;;;;2.00;1.90;;;19.80;55.00;;;;;;5071814;28;20472;-68
2020/12/16 00:20:42;;;;;;;1.90;1.80;;;19.80;55.00;;;;;;5073089;28;20477;-67
2020/12/16 00:23:10;;;;;;;2.40;2.30;;;19.80;55.00;;;;;;5061720;28;20845;-67
2020/12/16 00:25:36;;;;;;;2.13;2.03;;;19.80;55.00;;;;;;5080118;28;20475;-68
2020/12/16 00:28:02;;;;;;;2.43;2.33;;;19.80;55.00;;;;;;5074321;28;20542;-68
2020/12/16 00:30:29;;;;;;;2.30;2.20;;;19.80;55.00;;;;;;5073498;28;20488;-67
2020/12/16 00:32:55;;;;;;;2.67;2.57;;;19.80;55.00;;;;;;5070965;28;20547;-67
2020/12/16 00:35:21;;;;;;;2.30;2.20;;;19.80;55.00;;;;;;5076255;28;20499;-68
2020/12/16 00:37:47;;;;;;;2.50;2.40;;;19.80;55.00;;;;;;5060500;28;20485;-68
2020/12/16 00:40:16;;;;;;;2.90;2.10;;;19.80;55.00;;;;;;5034920;28;20488;-66
2020/12/16 00:42:46;;;;;;;2.60;2.50;;;19.80;55.00;;;;;;5029344;28;20489;-68
2020/12/16 00:45:12;;;;;;;2.47;2.30;;;19.80;55.00;;;;;;5036621;28;20493;-67
2020/12/16 00:47:39;;;;;;;3.87;2.43;;;19.80;55.00;;;;;;5040561;28;21283;-68
2020/12/16 00:50:06;;;;;;;3.30;2.40;;;19.80;55.00;;;;;;5052672;28;20540;-67
2020/12/16 00:52:32;;;;;;;2.33;2.13;;;19.80;55.00;;;;;;5052174;28;20514;-67
2020/12/16 00:54:58;;;;;;;2.40;2.30;;;19.80;55.00;;;;;;5048925;28;20539;-67
2020/12/16 00:57:24;;;;;;;2.13;1.97;;;19.80;54.80;;;;;;5042693;28;20485;-67
2020/12/16 00:59:51;;;;;;;2.00;1.90;;;19.90;54.40;;;;;;5021694;28;20495;-68
2020/12/16 01:02:17;;;;;;;2.00;1.90;;;19.90;54.30;;;;;;5078262;28;20480;-68
2020/12/16 01:04:44;;;;;;;2.40;2.30;;;20.00;54.10;;;;;;5072757;28;20481;-68
2020/12/16 01:07:10;;;;;;;2.00;1.90;;;20.00;54.00;;;;;;5068749;28;20611;-67
2020/12/16 01:09:36;;;;;;;1.97;1.87;;;20.00;53.80;;;;;;5050615;28;20511;-67
2020/12/16 01:12:02;;;;;;;2.40;2.20;;;20.00;53.80;;;;;;5060707;28;20491;-68
2020/12/16 01:14:29;;;;;;;2.20;2.10;;;20.00;53.70;;;;;;5086849;27;20877;-69
2020/12/16 01:16:55;;;;;;;2.33;2.23;;;20.10;53.90;;;;;;5070091;28;21288;-68
2020/12/16 01:19:21;;;;;;;2.00;1.90;;;20.00;54.00;;;;;;5070680;28;21106;-66
2020/12/16 01:21:48;;;;;;;2.83;2.40;;;20.00;54.30;;;;;;5070332;28;20472;-67
2020/12/16 01:24:14;;;;;;;2.00;1.93;;;19.90;54.20;;;;;;5043392;28;20537;-69
2020/12/16 01:26:41;;;;;;;2.60;2.03;;;19.90;54.30;;;;;;5044128;28;20890;-68
2020/12/16 01:29:07;;;;;;;2.87;2.70;;;19.90;54.30;;;;;;5074668;28;20484;-69
2020/12/16 01:31:38;;;;;;;3.37;2.20;;;19.90;54.10;;;;;;5070363;28;20522;-67
2020/12/16 01:34:04;;;;;;;2.20;2.10;;;20.00;54.00;;;;;;5076505;28;20485;-67
2020/12/16 01:36:30;;;;;;;3.27;2.47;;;20.00;53.70;;;;;;5081461;28;20480;-68
2020/12/16 01:38:57;;;;;;;2.93;2.20;;;20.00;53.60;;;;;;5069805;28;21569;-68
2020/12/16 01:41:23;;;;;;;2.50;2.30;;;20.00;53.80;;;;;;5065860;28;21065;-67
2020/12/16 01:43:49;;;;;;;2.00;1.90;;;20.00;53.90;;;;;;5072434;27;20542;-67
2020/12/16 01:46:16;;;;;;;2.40;2.30;;;20.00;54.10;;;;;;5065784;28;20481;-68
2020/12/16 01:48:42;;;;;;;2.27;2.17;;;20.00;54.10;;;;;;5053977;28;21004;-68
2020/12/16 01:51:08;;;;;;;2.73;2.57;;;19.90;54.10;;;;;;5072663;28;20974;-67
2020/12/16 01:53:34;;;;;;;2.83;2.63;;;19.90;54.20;;;;;;5070852;28;20498;-68
2020/12/16 01:56:01;;;;;;;2.60;2.40;;;19.90;54.00;;;;;;5072520;28;20472;-68
2020/12/16 01:58:28;;;;;;;3.03;2.67;;;19.90;54.00;;;;;;5073919;28;20506;-68
2020/12/16 02:00:54;;;;;;;2.43;2.33;;;19.90;54.00;;;;;;5069651;28;20489;-68
2020/12/16 02:03:21;;;;;;;2.30;2.20;;;19.90;53.90;;;;;;5070001;28;21044;-67
2020/12/16 02:05:49;;;;;;;2.20;2.00;;;19.90;53.90;;;;;;5071256;28;20514;-68
2020/12/16 02:08:15;;;;;;;2.53;2.33;;;19.90;53.90;;;;;;5069808;28;20484;-69
2020/12/16 02:10:41;;;;;;;2.50;2.40;;;19.90;54.70;;;;;;5054622;28;20481;-69
2020/12/16 02:13:08;;;;;;;2.10;2.00;;;19.90;53.80;;;;;;5070502;28;20478;-68
2020/12/16 02:15:34;;;;;;;2.03;1.93;;;19.90;53.90;;;;;;5072934;28;20477;-69
2020/12/16 02:18:00;;;;;;;2.80;2.60;;;19.90;53.90;;;;;;5072022;28;20991;-68
2020/12/16 02:20:26;;;;;;;2.77;2.20;;;19.90;54.00;;;;;;5063620;28;20875;-68
2020/12/16 02:22:52;;;;;;;2.50;2.30;;;19.90;53.90;;;;;;5046037;28;20954;-68
2020/12/16 02:25:19;;;;;;;2.30;2.20;;;20.00;53.90;;;;;;5082983;28;20473;-67
2020/12/16 02:27:45;;;;;;;2.27;2.17;;;20.00;53.80;;;;;;5071747;28;20481;-68
2020/12/16 02:30:12;;;;;;;2.30;2.20;;;20.00;53.70;;;;;;5055274;28;20492;-68
2020/12/16 02:32:38;;;;;;;2.47;2.30;;;20.00;53.60;;;;;;5070639;28;20873;-69
2020/12/16 02:35:05;;;;;;;6.90;2.70;;;20.00;53.60;;;;;;5069998;28;20478;-68
2020/12/16 02:37:31;;;;;;;2.27;2.17;;;20.00;53.60;;;;;;5070489;28;20481;-67
2020/12/16 02:39:57;;;;;;;2.50;2.40;;;20.00;53.70;;;;;;5070553;28;20492;-67
2020/12/16 02:42:25;;;;;;;2.20;2.07;;;20.00;53.80;;;;;;5071981;28;20619;-68
2020/12/16 02:44:52;;;;;;;2.10;2.00;;;20.00;53.70;;;;;;5073067;28;20542;-68
2020/12/16 02:47:18;;;;;;;2.63;2.53;;;20.00;53.70;;;;;;5068438;28;20480;-67
2020/12/16 02:49:44;;;;;;;2.87;2.53;;;20.00;53.70;;;;;;5069617;28;20518;-68
2020/12/16 02:52:10;;;;;;;2.40;2.30;;;20.00;53.70;;;;;;5072913;28;20484;-68
2020/12/16 02:54:36;;;;;;;2.97;2.77;;;19.90;53.60;;;;;;5069499;28;20480;-68
2020/12/16 02:57:03;;;;;;;1.90;1.80;;;19.90;53.60;;;;;;5042037;28;20474;-67
2020/12/16 02:59:30;;;;;;;2.53;2.40;;;20.00;53.70;;;;;;5056141;28;20477;-67
2020/12/16 03:01:57;;;;;;;2.70;1.90;;;19.90;53.60;;;;;;5049532;28;20486;-68
2020/12/16 03:04:25;;;;;;;2.70;2.50;;;20.00;53.60;;;;;;5015114;28;20891;-68
2020/12/16 03:06:52;;;;;;;2.23;2.13;;;19.90;53.60;;;;;;5037294;28;20515;-67
2020/12/16 03:09:19;;;;;;;2.23;2.13;;;19.90;53.60;;;;;;5051877;28;20485;-67
2020/12/16 03:11:45;;;;;;;2.97;2.87;;;19.90;53.60;;;;;;5052445;28;20476;-68
2020/12/16 03:14:11;;;;;;;2.60;2.50;;;19.90;53.60;;;;;;5040202;28;20528;-68
2020/12/16 03:16:38;;;;;;;2.37;2.27;;;19.90;53.60;;;;;;5051578;28;20488;-68
2020/12/16 03:19:05;;;;;;;2.53;2.27;;;19.90;53.70;;;;;;5053255;28;20494;-67
2020/12/16 03:21:31;;;;;;;2.43;2.33;;;19.90;53.70;;;;;;5009294;28;20537;-67
2020/12/16 03:23:57;;;;;;;2.10;2.00;;;19.90;53.70;;;;;;5008591;28;20533;-68
2020/12/16 03:26:23;;;;;;;2.80;2.70;;;19.90;53.60;;;;;;5049652;28;20539;-68
2020/12/16 03:28:49;;;;;;;2.33;1.90;;;19.90;53.60;;;;;;5053541;28;20473;-68
2020/12/16 03:31:15;;;;;;;2.30;2.20;;;19.90;53.70;;;;;;5049995;28;21173;-67
2020/12/16 03:33:43;;;;;;;2.33;2.23;;;19.90;53.70;;;;;;5048986;28;20520;-68
2020/12/16 03:36:09;;;;;;;2.70;2.50;;;19.90;53.80;;;;;;5052023;28;20494;-68
2020/12/16 03:38:36;;;;;;;2.03;1.93;;;20.00;53.70;;;;;;5031601;28;20494;-67
2020/12/16 03:41:02;;;;;;;3.07;2.43;;;19.90;53.50;;;;;;5052571;28;20489;-67
2020/12/16 03:43:28;;;;;;;2.67;2.57;;;20.00;53.50;;;;;;5040509;28;20471;-68
2020/12/16 03:45:54;;;;;;;2.90;2.70;;;20.00;53.40;;;;;;5050893;28;20481;-68
2020/12/16 03:48:20;;;;;;;2.10;2.00;;;20.00;53.30;;;;;;5046206;28;20458;-67
2020/12/16 03:50:47;;;;;;;2.87;2.60;;;20.10;53.30;;;;;;5042948;28;20482;-67
2020/12/16 03:53:13;;;;;;;2.50;2.40;;;20.10;53.10;;;;;;5049467;28;20477;-68
2020/12/16 03:55:39;;;;;;;2.03;1.93;;;20.10;53.10;;;;;;5042438;28;20474;-67
2020/12/16 03:58:05;;;;;;;2.77;2.53;;;20.10;53.00;;;;;;5027767;28;20502;-68
2020/12/16 04:00:32;;;;;;;3.13;2.87;;;20.10;52.90;;;;;;5032999;28;20489;-67
2020/12/16 04:02:58;;;;;;;2.53;2.43;;;20.10;53.00;;;;;;5040786;28;20517;-67
2020/12/16 04:05:24;;;;;;;2.10;2.00;;;20.10;52.90;;;;;;5042094;28;20505;-68
2020/12/16 04:07:51;;;;;;;2.70;2.50;;;20.10;53.10;;;;;;5053339;28;21024;-67
2020/12/16 04:10:17;;;;;;;2.53;2.43;;;20.10;53.90;;;;;;5053033;28;20494;-68
2020/12/16 04:12:43;;;;;;;3.07;2.87;;;20.10;53.20;;;;;;5036734;28;20504;-68
2020/12/16 04:15:09;;;;;;;3.33;3.00;;;20.00;53.10;;;;;;5040485;28;20488;-68
2020/12/16 04:17:36;;;;;;;3.30;3.03;;;20.00;53.30;;;;;;5042265;28;20993;-68
2020/12/16 04:20:03;;;;;;;2.40;2.30;;;20.00;53.30;;;;;;5031777;28;20482;-67
2020/12/16 04:22:29;;;;;;;3.73;3.07;;;20.00;53.20;;;;;;5053405;28;20482;-67
2020/12/16 04:24:56;;;;;;;3.20;3.00;;;20.00;53.20;;;;;;5060900;28;20485;-69
2020/12/16 04:27:22;;;;;;;2.77;2.63;;;20.00;53.20;;;;;;5054278;28;20635;-67
2020/12/16 04:29:48;;;;;;;3.40;3.17;;;20.00;53.20;;;;;;5058029;28;20504;-68
2020/12/16 04:32:14;;;;;;;3.53;3.23;;;20.10;53.20;;;;;;5066744;28;20551;-68
2020/12/16 04:34:40;;;;;;;3.57;3.37;;;20.10;53.10;;;;;;5050210;28;20521;-67
2020/12/16 04:37:07;;;;;;;4.13;3.73;;;20.00;53.00;;;;;;5030001;28;21440;-67
2020/12/16 04:39:33;;;;;;;3.70;3.40;;;20.00;53.20;;;;;;5054475;28;21727;-67
2020/12/16 04:42:00;;;;;;;4.20;3.90;;;20.10;53.30;;;;;;5058529;28;21672;-67
2020/12/16 04:44:26;;;;;;;2.77;2.57;;;20.00;53.30;;;;;;5058979;28;20481;-70
2020/12/16 04:46:52;;;;;;;3.43;3.13;;;20.00;53.20;;;;;;5059017;28;20551;-69
2020/12/16 04:49:18;;;;;;;8.27;4.17;;;20.00;53.20;;;;;;5071348;28;21019;-68
2020/12/16 04:51:44;;;;;;;3.10;2.90;;;20.00;53.30;;;;;;5070075;28;20885;-68
2020/12/16 04:54:11;;;;;;;3.73;3.43;;;20.00;53.30;;;;;;5064700;28;20488;-68
2020/12/16 04:56:37;;;;;;;4.60;3.90;;;19.90;53.20;;;;;;5068421;28;21057;-68
2020/12/16 04:59:04;;;;;;;4.43;3.40;;;20.00;53.40;;;;;;5074413;28;20503;-67
2020/12/16 05:01:30;;;;;;;2.80;2.70;;;19.90;53.30;;;;;;5052049;28;20479;-68
2020/12/16 05:03:57;;;;;;;3.33;3.03;;;19.90;53.30;;;;;;5068822;28;20484;-68
2020/12/16 05:06:33;;;;;;;3.50;3.20;;;19.90;53.40;;;;;;5027056;28;20482;-68
2020/12/16 05:09:04;;;;;;;3.83;3.37;;;19.90;53.40;;;;;;5050556;28;20491;-68
2020/12/16 05:11:43;;;;;;;6.40;3.47;;;19.90;53.40;;;;;;5027759;28;21011;-67
2020/12/16 05:14:15;;;;;;;3.37;3.17;;;19.80;53.50;;;;;;5026609;28;20507;-68
2020/12/16 05:17:00;;;;;;;3.50;3.20;;;19.80;53.60;;;;;;5039532;28;21585;-68
2020/12/16 05:19:30;;;;;;;3.30;3.10;;;19.90;53.50;;;;;;5080220;28;20485;-68
2020/12/16 05:22:11;;;;;;;3.80;3.40;;;20.00;53.40;;;;;;5070976;28;20851;-68
2020/12/16 05:24:37;;;;;;;3.70;3.40;;;20.00;53.40;;;;;;5066395;28;20525;-68
2020/12/16 05:27:03;;;;;;;4.97;3.90;;;20.00;53.30;;;;;;5077110;28;20494;-68
2020/12/16 05:29:30;;;;;;;3.47;3.23;;;20.00;54.10;;;;;;5053824;28;20493;-67
2020/12/16 05:31:56;;;;;;;4.37;3.97;;;20.00;53.30;;;;;;5044293;28;21010;-67
2020/12/16 05:34:28;;;;;;;4.43;4.00;;;20.00;53.40;;;;;;5052085;28;20853;-67
2020/12/16 05:36:54;;;;;;;4.37;3.97;;;20.00;53.30;;;;;;5051568;28;20478;-68
2020/12/16 05:39:20;;;;;;;4.87;4.07;;;20.00;53.30;;;;;;5024752;28;20489;-68
2020/12/16 05:41:54;;;;;;;5.03;4.53;;;20.00;53.20;;;;;;5034492;28;20514;-68
2020/12/16 05:44:21;;;;;;;7.83;4.57;;;20.10;53.20;;;;;;5051021;28;21065;-68
2020/12/16 05:46:48;;;;;;;5.40;5.00;;;20.10;53.20;;;;;;5049800;28;20485;-68
2020/12/16 05:49:21;;;;;;;4.27;3.97;;;20.00;53.00;;;;;;5049418;28;20486;-68
2020/12/16 05:51:55;;;;;;;4.70;4.30;;;20.10;53.00;;;;;;5028300;28;20623;-68
2020/12/16 05:54:21;;;;;;;5.03;4.50;;;20.00;53.10;;;;;;5043693;28;20489;-67
2020/12/16 05:56:47;;;;;;;9.00;4.80;;;20.00;53.10;;;;;;5035885;28;21439;-68
2020/12/16 05:59:13;;;;;;;4.93;4.53;;;20.00;53.20;;;;;;5043814;28;20483;-68
2020/12/16 06:01:39;;;;;;;8.37;6.03;;;20.00;53.30;;;;;;5049042;28;20477;-67
2020/12/16 06:04:06;;;;;;;5.00;4.60;;;20.00;53.20;;;;;;5065210;28;20473;-68
2020/12/16 06:06:32;;;;;;;4.90;4.50;;;20.10;53.10;;;;;;5069943;28;20492;-68
2020/12/16 06:08:59;;;;;;;4.17;3.80;;;20.10;52.90;;;;;;5041991;28;20491;-67
2020/12/16 06:11:25;;;;;;;5.03;3.87;;;20.10;52.90;;;;;;5057034;28;20492;-68
2020/12/16 06:13:51;;;;;;;5.40;4.93;;;20.20;52.80;;;;;;5077834;27;20497;-69
2020/12/16 06:16:17;;;;;;;4.80;4.40;;;20.20;52.70;;;;;;5033531;28;20477;-69
2020/12/16 06:18:44;;;;;;;4.97;4.60;;;20.20;52.60;;;;;;5072719;28;20497;-72
2020/12/16 06:21:12;;;;;;;5.20;3.90;;;20.20;52.60;;;;;;5034178;28;20514;-68
2020/12/16 06:23:38;;;;;;;4.83;4.37;;;20.20;52.80;;;;;;5044600;28;20489;-68
2020/12/16 06:26:06;;;;;;;7.30;5.53;;;20.10;52.90;;;;;;5029923;28;20505;-68
2020/12/16 06:28:32;;;;;;;5.17;4.70;;;20.10;52.90;;;;;;5051902;28;20547;-68
2020/12/16 06:31:04;;;;;;;6.73;4.63;;;20.10;52.90;;;;;;5052883;28;20464;-68
2020/12/16 06:33:41;;;;;;;7.27;4.77;;;20.10;53.00;;;;;;5039423;28;20652;-67
2020/12/16 06:36:08;;;;;;;5.17;4.67;;;20.10;53.00;;;;;;5014233;28;21046;-67
2020/12/16 06:38:43;;;;;;;5.50;4.93;;;20.10;53.00;;;;;;5030792;28;20478;-67
2020/12/16 06:41:17;;;;;;;6.73;6.13;;;20.10;52.90;;;;;;5026220;28;21065;-67
2020/12/16 06:43:44;;;;;;;7.67;5.93;;;20.10;52.80;;;;;;5036272;28;20490;-67
2020/12/16 06:46:39;;;;;;;6.67;5.20;;;20.00;52.80;;;;;;5031664;28;20488;-68
2020/12/16 06:49:06;;;;;;;5.60;5.10;;;20.00;52.70;;;;;;5046469;28;20530;-69
2020/12/16 06:51:41;;;;;;;6.60;5.93;;;20.00;52.70;;;;;;5064630;28;20509;-68
2020/12/16 06:54:08;;;;;;;6.23;5.63;;;20.00;52.80;;;;;;5056443;28;20508;-67
2020/12/16 06:56:35;;;;;;;8.43;4.77;;;20.00;52.90;;;;;;5061671;28;20574;-68
2020/12/16 06:59:01;;;;;;;7.27;5.30;;;19.90;53.00;;;;;;5048069;28;20464;-68
2020/12/16 07:01:27;;;;;;;5.37;4.87;;;19.90;53.00;;;;;;5072158;28;20545;-69
2020/12/16 07:03:53;;;;;;;5.33;4.93;;;19.90;52.90;;;;;;5059256;28;20492;-67
2020/12/16 07:06:39;;;;;;;4.47;4.07;;;20.00;53.00;;;;;;5074183;28;20996;-68
2020/12/16 07:09:16;;;;;;;5.50;5.00;;;20.00;52.90;;;;;;5070666;28;20492;-66
2020/12/16 07:11:43;;;;;;;5.27;4.77;;;20.00;52.80;;;;;;5021699;28;21652;-68
2020/12/16 07:14:09;;;;;;;6.53;4.40;;;20.10;52.80;;;;;;5040497;28;20504;-68
2020/12/16 07:16:36;;;;;;;17.53;5.13;;;20.10;52.70;;;;;;5075208;28;21255;-68
2020/12/16 07:19:02;;;;;;;4.70;4.30;;;20.10;52.60;;;;;;5074087;28;20477;-67
2020/12/16 07:21:31;;;;;;;5.27;4.80;;;20.10;52.60;;;;;;5076635;28;20481;-68
2020/12/16 07:24:04;;;;;;;5.23;4.63;;;20.10;52.70;;;;;;5072332;28;20484;-67
2020/12/16 07:26:31;;;;;;;5.53;5.03;;;20.10;52.90;;;;;;5071403;28;20484;-67
2020/12/16 07:28:59;;;;;;;4.67;4.27;;;20.00;53.00;;;;;;5072798;27;20616;-67
2020/12/16 07:31:25;;;;;;;4.03;3.77;;;19.90;53.00;;;;;;5076539;28;20512;-67
2020/12/16 07:33:51;;;;;;;5.17;4.77;;;19.90;53.20;;;;;;5062946;28;20494;-68
2020/12/16 07:36:18;;;;;;;6.10;4.00;;;19.90;54.10;;;;;;5071916;28;20495;-69
2020/12/16 07:38:48;;;;;;;5.37;4.87;;;19.90;53.30;;;;;;5073255;28;20503;-69
2020/12/16 07:41:25;;;;;;;5.10;4.70;;;19.90;53.40;;;;;;5073593;28;20493;-67
2020/12/16 07:43:53;;;;;;;4.67;4.27;;;19.80;53.30;;;;;;5066735;27;20479;-68
2020/12/16 07:46:20;;;;;;;4.73;4.30;;;19.90;53.20;;;;;;5076291;27;20489;-68
2020/12/16 07:48:47;;;;;;;4.90;4.50;;;19.90;53.20;;;;;;5059594;28;20480;-67
2020/12/16 07:51:13;;;;;;;5.60;4.73;;;19.90;53.20;;;;;;5070807;28;20481;-68
2020/12/16 07:53:44;;;;;;;3.97;3.67;;;19.90;53.10;;;;;;5072503;28;20488;-68
2020/12/16 07:56:10;;;;;;;7.90;3.83;;;19.90;53.10;;;;;;5063693;28;20481;-67
2020/12/16 07:58:36;;;;;;;4.93;4.53;;;19.90;53.20;;;;;;5077951;28;20480;-68
2020/12/16 08:01:07;;;;;;;4.57;4.17;;;19.80;53.20;;;;;;5046133;27;20497;-67
2020/12/16 08:03:34;;;;;;;4.57;4.07;;;19.90;53.20;;;;;;5025188;28;20492;-67
2020/12/16 08:06:00;;;;;;;4.10;3.83;;;19.80;53.20;;;;;;5071974;27;20572;-67
2020/12/16 08:08:26;;;;;;;6.10;4.60;;;19.80;53.30;;;;;;5046854;28;21038;-68
2020/12/16 08:10:53;;;;;;;4.30;4.00;;;19.80;53.40;;;;;;5036924;28;20482;-69
2020/12/16 08:13:21;;;;;;;3.73;3.53;;;19.80;53.40;;;;;;5015446;28;20527;-67
2020/12/16 08:15:47;;;;;;;4.40;4.00;;;19.80;53.40;;;;;;5052603;28;20512;-68
2020/12/16 08:18:16;;;;;;;4.07;3.77;;;19.80;53.40;;;;;;5071926;28;20530;-67
2020/12/16 08:20:42;;;;;;;4.77;4.40;;;19.70;53.30;;;;;;5072591;28;20564;-68
2020/12/16 08:23:11;;;;;;;4.37;3.97;;;19.70;53.30;;;;;;5070544;28;21020;-68
2020/12/16 08:25:37;;;;;;;5.43;4.10;;;19.70;53.30;;;;;;5069141;28;20487;-68
2020/12/16 08:28:04;;;;;;;4.43;4.13;;;19.70;53.40;;;;;;5071932;28;20527;-67
2020/12/16 08:30:31;;;;;;;3.20;3.10;;;19.70;53.30;;;;;;5047103;28;20488;-67
2020/12/16 08:32:59;;;;;;;4.33;3.93;;;19.70;53.30;;;;;;5069911;28;20504;-68
2020/12/16 08:35:28;;;;;;;3.63;3.30;;;19.60;54.10;;;;;;5065886;28;21079;-68
2020/12/16 08:37:55;;;;;;;5.10;4.70;;;19.60;53.40;;;;;;5063548;28;20530;-68
2020/12/16 08:40:21;;;;;;;4.50;3.63;;;19.60;53.40;;;;;;5066237;28;20896;-67
2020/12/16 08:42:47;;;;;;;4.23;3.83;;;19.60;53.40;;;;;;5053480;28;20482;-67
2020/12/16 08:45:13;;;;;;;4.37;4.07;;;19.60;53.30;;;;;;5052106;28;20997;-67
2020/12/16 08:47:40;;;;;;;10.30;3.80;;;19.60;53.30;;;;;;5052549;28;20484;-66
2020/12/16 08:50:07;;;;;;;3.50;3.30;;;19.60;53.30;;;;;;5050950;28;20478;-68
2020/12/16 08:52:41;;;;;;;3.63;3.33;;;19.60;53.30;;;;;;5061289;28;20477;-68
2020/12/16 08:55:14;;;;;;;3.53;3.20;;;19.60;53.30;;;;;;5043371;28;20531;-68
2020/12/16 08:57:52;;;;;;;4.33;3.50;;;19.60;53.20;;;;;;5050346;28;20489;-67
2020/12/16 09:00:18;;;;;;;8.83;4.23;;;19.70;53.10;;;;;;5064815;28;20489;-68
2020/12/16 09:02:44;;;;;;;3.97;3.43;;;19.70;52.80;;;;;;5063424;28;20496;-68
2020/12/16 09:05:10;;;;;;;4.60;4.00;;;19.80;52.60;;;;;;5045451;28;20479;-68
2020/12/16 09:07:36;;;;;;;4.80;3.70;;;19.90;52.30;;;;;;5041911;28;20559;-69
2020/12/16 09:10:08;;;;;;;3.90;3.60;;;20.00;52.30;;;;;;5049907;28;20495;-68
2020/12/16 09:12:34;;;;;;;4.10;3.90;;;20.00;52.10;;;;;;5045652;28;20482;-68
2020/12/16 09:15:02;;;;;;;4.00;3.70;;;20.00;52.00;;;;;;5045873;28;20533;-67
2020/12/16 09:17:29;;;;;;;4.23;3.93;;;20.10;51.90;;;;;;5056906;28;20472;-68
2020/12/16 09:19:56;;;;;;;3.30;3.03;;;20.10;51.70;;;;;;5074766;27;20551;-68
2020/12/16 09:22:22;;;;;;;3.57;3.27;;;20.10;51.70;;;;;;5040893;27;20516;-68
2020/12/16 09:24:49;;;;;;;3.40;3.17;;;20.10;51.70;;;;;;5041822;28;20487;-69
2020/12/16 09:27:16;;;;;;;4.07;3.67;;;20.10;51.80;;;;;;5055062;28;20487;-69
2020/12/16 09:29:45;;;;;;;3.67;3.00;;;20.20;51.80;;;;;;5055554;28;20485;-68
2020/12/16 09:32:12;;;;;;;3.10;2.80;;;20.20;51.60;;;;;;5061001;28;20941;-68
2020/12/16 09:34:39;;;;;;;3.43;3.23;;;20.30;51.60;;;;;;5035793;28;20539;-68
2020/12/16 09:37:15;;;;;;;3.23;3.03;;;20.30;51.50;;;;;;5066643;28;20531;-67
2020/12/16 09:39:41;;;;;;;4.43;3.90;;;20.30;51.40;;;;;;5057716;28;20519;-67
2020/12/16 09:42:10;;;;;;;3.33;3.03;;;20.30;51.30;;;;;;5053863;28;20560;-67
2020/12/16 09:44:37;;;;;;;4.00;3.63;;;20.40;51.30;;;;;;5058423;28;20481;-68
2020/12/16 09:47:17;;;;;;;3.40;3.20;;;20.40;51.20;;;;;;5063695;28;20480;-67
2020/12/16 09:49:44;;;;;;;5.20;3.70;;;20.40;51.30;;;;;;5069983;28;20488;-67
2020/12/16 09:52:29;;;;;;;3.20;3.00;;;20.30;51.20;;;;;;5066624;28;20516;-68
2020/12/16 09:54:56;;;;;;;3.83;3.50;;;20.30;51.30;;;;;;5059037;28;20478;-68
2020/12/16 09:57:22;;;;;;;5.97;4.90;;;20.20;51.40;;;;;;5051817;28;20486;-67
2020/12/16 09:59:49;;;;;;;3.23;3.03;;;20.20;51.60;;;;;;5025927;28;20486;-68
2020/12/16 10:02:16;;;;;;;3.90;3.60;;;20.20;51.70;;;;;;5044599;28;20562;-68
2020/12/16 10:04:42;;;;;;;3.43;3.23;;;20.10;51.70;;;;;;5046506;28;21020;-68
2020/12/16 10:07:08;;;;;;;8.57;3.50;;;20.10;51.90;;;;;;5045835;28;21112;-67
2020/12/16 10:09:35;;;;;;;4.47;4.10;;;20.10;51.80;;;;;;5049175;28;21195;-67
2020/12/16 10:12:02;;;;;;;4.60;3.37;;;20.10;51.90;;;;;;5031968;28;20588;-67
2020/12/16 10:14:28;;;;;;;2.80;2.60;;;20.10;51.80;;;;;;5046294;28;20585;-67
2020/12/16 10:16:55;;;;;;;2.73;2.40;;;20.10;51.80;;;;;;5037562;28;20504;-67
2020/12/16 10:19:21;;;;;;;2.73;2.53;;;20.10;51.70;;;;;;5054365;28;20484;-68
2020/12/16 10:21:48;;;;;;;3.27;3.03;;;20.10;52.50;;;;;;5057243;28;20480;-67
2020/12/16 10:24:14;;;;;;;2.87;2.77;;;20.10;51.80;;;;;;5057735;28;20485;-67
2020/12/16 10:26:40;;;;;;;2.77;2.60;;;20.20;51.80;;;;;;5059171;28;20472;-68
2020/12/16 10:29:06;;;;;;;2.70;2.60;;;20.20;51.80;;;;;;5046315;28;22000;-69
2020/12/16 10:31:32;;;;;;;3.20;3.00;;;20.20;51.80;;;;;;5065887;28;21060;-67
2020/12/16 10:33:59;;;;;;;1.90;1.80;;;20.20;51.80;;;;;;5036938;28;21109;-67
2020/12/16 10:36:26;;;;;;;2.53;2.33;;;20.20;51.80;;;;;;5039303;28;20567;-68
2020/12/16 10:38:52;;;;;;;2.80;2.60;;;20.20;51.70;;;;;;5026372;28;20473;-67
2020/12/16 10:41:18;;;;;;;2.57;2.43;;;20.20;51.80;;;;;;5030269;28;20535;-68
2020/12/16 10:43:44;;;;;;;2.77;2.63;;;20.20;51.80;;;;;;5018256;28;21342;-68
2020/12/16 10:46:10;;;;;;;3.00;2.90;;;20.20;51.90;;;;;;5019489;28;21033;-68
2020/12/16 10:48:36;;;;;;;3.00;2.80;;;20.20;52.00;;;;;;5008260;28;21103;-67
2020/12/16 10:51:03;;;;;;;2.70;2.60;;;20.20;52.10;;;;;;5045264;28;20486;-67
2020/12/16 10:53:30;;;;;;;3.30;2.47;;;20.20;52.10;;;;;;5045041;28;20482;-70
2020/12/16 10:55:56;;;;;;;2.67;2.57;;;20.20;52.10;;;;;;5035965;28;20497;-68
2020/12/16 10:58:23;;;;;;;2.80;2.23;;;20.20;52.10;;;;;;5038008;28;20556;-68
2020/12/16 11:00:49;;;;;;;2.23;2.10;;;20.20;52.10;;;;;;5048973;28;20516;-69
2020/12/16 11:03:16;;;;;;;3.13;2.87;;;20.20;52.10;;;;;;5034240;28;21094;-68
2020/12/16 11:05:42;;;;;;;2.50;2.40;;;20.20;52.10;;;;;;4992117;28;20870;-68
2020/12/16 11:08:08;;;;;;;3.13;2.70;;;20.20;52.10;;;;;;5047213;28;20479;-68
2020/12/16 11:10:34;;;;;;;2.73;2.63;;;20.20;52.00;;;;;;5037120;28;20514;-67
2020/12/16 11:13:01;;;;;;;3.47;3.23;;;20.20;52.00;;;;;;5034315;28;20477;-67
2020/12/16 11:15:28;;;;;;;3.77;3.53;;;20.20;52.00;;;;;;5058213;28;20523;-69
2020/12/16 11:17:55;;;;;;;3.67;3.33;;;20.20;52.00;;;;;;5067395;28;20826;-68
2020/12/16 11:20:21;;;;;;;4.27;3.90;;;20.20;51.90;;;;;;5051959;28;21013;-67
2020/12/16 11:22:47;;;;;;;7.27;3.60;;;20.10;51.90;;;;;;5053640;28;20553;-67
2020/12/16 11:25:13;;;;;;;4.03;3.40;;;20.10;51.80;;;;;;5024577;28;20492;-68
2020/12/16 11:27:39;;;;;;;3.90;3.60;;;20.10;51.70;;;;;;5039197;28;20940;-67
2020/12/16 11:30:06;;;;;;;3.57;3.37;;;20.10;51.70;;;;;;5036123;28;20883;-67
2020/12/16 11:32:33;;;;;;;3.00;2.80;;;20.10;51.90;;;;;;5050120;28;20562;-67
2020/12/16 11:34:59;;;;;;;3.47;3.03;;;20.10;51.90;;;;;;5065974;28;20479;-67
2020/12/16 11:37:25;;;;;;;3.57;3.37;;;20.10;51.90;;;;;;5072893;28;20480;-67
2020/12/16 11:39:56;;;;;;;2.67;2.50;;;20.10;52.00;;;;;;5039573;28;20486;-67
2020/12/16 11:42:22;;;;;;;5.17;3.40;;;20.10;52.00;;;;;;5026139;28;20497;-67
2020/12/16 11:44:48;;;;;;;3.00;2.80;;;20.10;52.00;;;;;;5063954;28;21060;-67
2020/12/16 11:47:14;;;;;;;3.63;3.33;;;20.20;52.00;;;;;;5045431;28;20562;-68
2020/12/16 11:49:41;;;;;;;4.33;3.93;;;20.20;51.90;;;;;;5011655;28;21433;-68
2020/12/16 11:52:08;;;;;;;6.60;3.67;;;20.20;51.90;;;;;;5022553;28;20576;-67
2020/12/16 11:54:34;;;;;;;3.80;3.50;;;20.20;51.80;;;;;;5024480;28;20825;-67
2020/12/16 11:57:00;;;;;;;3.97;3.57;;;20.20;51.70;;;;;;5047929;28;20550;-68
2020/12/16 11:59:27;;;;;;;4.03;3.50;;;20.30;51.80;;;;;;5026316;28;20478;-68
2020/12/16 12:01:54;;;;;;;4.60;4.17;;;20.20;51.60;;;;;;5043289;28;21195;-67
2020/12/16 12:04:20;;;;;;;4.27;3.77;;;20.20;51.70;;;;;;5029800;28;20556;-68
2020/12/16 12:06:47;;;;;;;4.80;4.30;;;20.10;51.70;;;;;;5038179;28;20492;-68
2020/12/16 12:09:13;;;;;;;4.57;4.17;;;20.10;52.00;;;;;;4994295;28;20502;-67
2020/12/16 12:11:39;;;;;;;4.90;3.90;;;20.10;52.10;;;;;;5031499;28;20480;-69
2020/12/16 12:14:06;;;;;;;4.20;3.87;;;20.10;52.10;;;;;;5033410;28;20482;-68
2020/12/16 12:16:32;;;;;;;5.97;4.47;;;20.10;52.10;;;;;;5051311;28;21013;-67
2020/12/16 12:18:58;;;;;;;4.07;3.67;;;20.10;52.00;;;;;;5045492;28;21383;-67
2020/12/16 12:21:24;;;;;;;5.00;4.50;;;20.00;51.90;;;;;;5049463;28;20474;-67
2020/12/16 12:23:51;;;;;;;3.93;3.73;;;20.10;52.00;;;;;;5032465;28;20478;-68
2020/12/16 12:26:17;;;;;;;6.00;4.13;;;20.10;51.90;;;;;;5061742;28;20478;-68
2020/12/16 12:28:43;;;;;;;4.20;3.80;;;20.10;51.90;;;;;;5036369;28;20475;-68
2020/12/16 12:31:09;;;;;;;4.30;3.90;;;20.10;51.90;;;;;;5038296;28;20475;-68
2020/12/16 12:33:36;;;;;;;4.70;4.23;;;20.10;51.90;;;;;;5012890;28;20482;-68
2020/12/16 12:36:02;;;;;;;4.37;4.07;;;20.20;51.80;;;;;;5035475;28;20481;-68
2020/12/16 12:38:28;;;;;;;4.20;3.80;;;20.20;51.70;;;;;;5021272;28;20474;-67
2020/12/16 12:40:55;;;;;;;4.03;3.73;;;20.20;51.70;;;;;;5032938;28;21630;-67
2020/12/16 12:43:21;;;;;;;4.60;4.20;;;20.30;51.70;;;;;;5046372;27;20491;-67
2020/12/16 12:45:47;;;;;;;4.90;4.00;;;20.30;51.70;;;;;;5063951;27;20852;-67
2020/12/16 12:48:13;;;;;;;4.30;3.93;;;20.20;51.80;;;;;;5020407;28;20850;-68